Harold Wood, United Kingdom
Current Conditions -  °F | °C
As of 9:50 AM on Sunday 23 Nov 2014 (Local Time) from EGLC Reporting Station
Moderate Rain Moderate Rain  
Wind Chill: 45°   Ceiling: 2800
Heat Index: 48°   Visibility: 6mi
Dew Point: 45°   Wind: 7mph
Humidity: 87%   Direction: 340°NNW
Pressure: 30"   Gusts: NA
Location:  51.59°N, 0.23°E
Report Text: EGLC 230950Z AUTO 34006KT 280V030 9999 RA FEW010/// SCT016/// BKN028/// 09/07 Q1016
Loading
Personal Weather Stations






























Interactive Weather Map New forecast layout! Learn more

10-Day Weather Forecast

Advertisements
Track Severe Weather on mobile